Time;durP1;ratioP1;P1;durP2;ratioP2;P2;SDS_P1;SDS_P2;PMS_P1;PMS_P2;Temp;Humidity;BMP_temperature;BMP_pressure;BME280_temperature;BME280_humidity;BME280_pressure;Samples;Min_cycle;Max_cycle;Signal;HPM_P1;HPM_P2
2021/08/27 00:01:53;;;;;;;8.68;1.75;;;;;;;;;;5101880;28;20159;-83
2021/08/27 00:04:20;;;;;;;5.15;1.67;;;;;;;;;;5099933;28;20510;-85
2021/08/27 00:06:46;;;;;;;7.32;1.88;;;;;;;;;;5097695;28;20078;-84
2021/08/27 00:09:15;;;;;;;7.03;1.95;;;;;;;;;;5096689;28;20067;-83
2021/08/27 00:11:41;;;;;;;4.68;1.88;;;;;;;;;;5112134;28;20048;-84
2021/08/27 00:14:08;;;;;;;7.18;1.33;;;;;;;;;;5112132;28;20048;-83
2021/08/27 00:16:35;;;;;;;7.97;1.90;;;;;;;;;;5111929;28;20143;-83
2021/08/27 00:19:02;;;;;;;7.22;1.80;;;;;;;;;;5111144;28;20095;-83
2021/08/27 00:21:28;;;;;;;8.52;1.75;;;;;;;;;;5135698;27;20102;-83
2021/08/27 00:23:54;;;;;;;9.57;1.75;;;;;;;;;;5125234;27;20270;-84
2021/08/27 00:26:21;;;;;;;7.72;2.10;;;;;;;;;;5076858;28;20440;-83
2021/08/27 00:28:51;;;;;;;7.22;2.20;;;;;;;;;;5119393;28;20052;-83
2021/08/27 00:31:17;;;;;;;8.02;2.10;;;;;;;;;;5091281;28;20048;-83
2021/08/27 00:33:44;;;;;;;6.45;1.90;;;;;;;;;;5082914;28;20045;-83
2021/08/27 00:36:14;;;;;;;6.47;1.92;;;;;;;;;;5078749;28;20060;-83
2021/08/27 00:38:43;;;;;;;10.50;2.13;;;;;;;;;;5108025;28;20440;-83
2021/08/27 00:41:09;;;;;;;8.65;1.75;;;;;;;;;;5076206;28;20060;-83
2021/08/27 00:43:36;;;;;;;4.93;1.83;;;;;;;;;;5080910;28;20052;-84
2021/08/27 00:46:05;;;;;;;6.43;1.55;;;;;;;;;;5083010;28;20455;-84
2021/08/27 00:48:32;;;;;;;10.25;1.85;;;;;;;;;;5082487;28;20066;-83
2021/08/27 00:50:59;;;;;;;5.68;1.55;;;;;;;;;;5116128;28;20060;-83
2021/08/27 00:53:25;;;;;;;7.03;1.65;;;;;;;;;;5079775;28;20188;-83
2021/08/27 00:55:52;;;;;;;7.30;1.30;;;;;;;;;;5080526;28;20460;-83
2021/08/27 00:58:19;;;;;;;7.28;1.63;;;;;;;;;;5115485;27;20114;-83
2021/08/27 01:00:46;;;;;;;7.28;1.98;;;;;;;;;;5115335;28;20397;-83
2021/08/27 01:03:13;;;;;;;6.53;1.92;;;;;;;;;;5080546;28;20044;-83
2021/08/27 01:05:41;;;;;;;7.55;1.90;;;;;;;;;;5080455;28;20056;-83
2021/08/27 01:08:14;;;;;;;4.68;1.38;;;;;;;;;;5081705;28;20098;-83
2021/08/27 01:10:44;;;;;;;5.43;1.60;;;;;;;;;;5082237;28;20114;-84
2021/08/27 01:13:11;;;;;;;5.70;1.73;;;;;;;;;;5115053;28;20129;-83
2021/08/27 01:15:38;;;;;;;14.10;1.77;;;;;;;;;;5114322;28;20063;-83
2021/08/27 01:18:14;;;;;;;6.97;2.00;;;;;;;;;;5114240;27;20060;-83
2021/08/27 01:20:41;;;;;;;5.22;1.92;;;;;;;;;;5115861;28;20040;-85
2021/08/27 01:23:14;;;;;;;9.30;1.92;;;;;;;;;;5081126;28;20075;-83
2021/08/27 01:25:49;;;;;;;8.38;1.90;;;;;;;;;;5081459;28;20044;-83
2021/08/27 01:28:17;;;;;;;8.07;1.70;;;;;;;;;;5090101;28;20044;-83
2021/08/27 01:31:07;;;;;;;10.57;1.70;;;;;;;;;;5132043;27;20052;-83
2021/08/27 01:33:36;;;;;;;7.80;1.95;;;;;;;;;;5085296;28;20131;-83
2021/08/27 01:36:03;;;;;;;5.13;1.58;;;;;;;;;;5081275;28;20044;-84
2021/08/27 01:38:35;;;;;;;9.48;2.25;;;;;;;;;;5082674;28;20147;-83
2021/08/27 01:41:04;;;;;;;5.22;1.70;;;;;;;;;;5082935;28;20272;-83
2021/08/27 01:43:31;;;;;;;6.25;1.67;;;;;;;;;;5083313;28;20075;-83
2021/08/27 01:46:01;;;;;;;3.30;1.30;;;;;;;;;;5085306;28;20087;-83
2021/08/27 01:48:30;;;;;;;7.03;1.88;;;;;;;;;;5089090;28;20083;-83
2021/08/27 01:50:56;;;;;;;7.50;1.98;;;;;;;;;;5098852;28;20036;-83
2021/08/27 01:53:23;;;;;;;9.30;2.22;;;;;;;;;;5097532;28;20053;-83
2021/08/27 01:55:50;;;;;;;7.95;2.70;;;;;;;;;;5114594;28;20505;-83
2021/08/27 01:58:17;;;;;;;7.63;2.20;;;;;;;;;;5078349;28;20143;-83
2021/08/27 02:00:44;;;;;;;9.20;2.25;;;;;;;;;;5109817;28;20110;-83
2021/08/27 02:03:10;;;;;;;7.82;2.58;;;;;;;;;;5076556;28;20048;-83
2021/08/27 02:05:38;;;;;;;6.63;2.20;;;;;;;;;;5109648;28;20063;-83
2021/08/27 02:08:05;;;;;;;6.50;2.25;;;;;;;;;;5076100;28;20049;-83
2021/08/27 02:10:32;;;;;;;10.85;2.92;;;;;;;;;;5076635;28;20087;-82
2021/08/27 02:12:59;;;;;;;11.73;2.70;;;;;;;;;;5110626;28;20062;-83
2021/08/27 02:15:26;;;;;;;11.57;3.25;;;;;;;;;;5076829;28;20056;-83
2021/08/27 02:17:58;;;;;;;10.07;2.47;;;;;;;;;;5078593;28;20052;-83
2021/08/27 02:20:26;;;;;;;10.25;2.85;;;;;;;;;;5079424;28;20056;-83
2021/08/27 02:22:52;;;;;;;8.75;2.50;;;;;;;;;;5079252;28;20064;-82
2021/08/27 02:25:26;;;;;;;6.00;2.58;;;;;;;;;;5079505;28;20133;-83
2021/08/27 02:27:54;;;;;;;7.35;2.67;;;;;;;;;;5080521;28;20053;-82
2021/08/27 02:30:20;;;;;;;7.47;2.50;;;;;;;;;;5078989;28;20052;-83
2021/08/27 02:32:48;;;;;;;15.85;3.35;;;;;;;;;;5078387;28;20072;-83
2021/08/27 02:35:15;;;;;;;9.07;2.50;;;;;;;;;;5077900;28;20052;-82
2021/08/27 02:37:42;;;;;;;7.90;2.30;;;;;;;;;;5078197;28;20440;-82
2021/08/27 02:40:15;;;;;;;6.32;2.55;;;;;;;;;;5078464;28;20456;-82
2021/08/27 02:42:42;;;;;;;6.18;2.70;;;;;;;;;;5079711;28;20440;-82
2021/08/27 02:45:08;;;;;;;10.32;2.75;;;;;;;;;;5090876;28;20115;-82
2021/08/27 02:47:38;;;;;;;7.25;2.55;;;;;;;;;;5113625;28;20039;-82
2021/08/27 02:50:05;;;;;;;11.13;2.58;;;;;;;;;;5104990;28;20127;-83
2021/08/27 02:52:50;;;;;;;10.45;2.60;;;;;;;;;;5099737;28;20090;-82
2021/08/27 02:55:19;;;;;;;10.73;2.65;;;;;;;;;;5102253;28;20051;-82
2021/08/27 02:57:50;;;;;;;17.20;3.33;;;;;;;;;;5149701;27;20363;-82
2021/08/27 03:00:17;;;;;;;8.15;3.10;;;;;;;;;;5148720;27;20048;-83
2021/08/27 03:02:45;;;;;;;11.38;2.35;;;;;;;;;;5135511;27;20040;-83
2021/08/27 03:05:18;;;;;;;7.43;2.67;;;;;;;;;;5098692;28;20320;-83
2021/08/27 03:07:47;;;;;;;11.60;2.88;;;;;;;;;;5099309;28;20058;-83
2021/08/27 03:10:16;;;;;;;8.57;2.83;;;;;;;;;;5113577;28;20046;-83
2021/08/27 03:12:48;;;;;;;12.73;2.95;;;;;;;;;;5100609;28;20344;-83
2021/08/27 03:15:19;;;;;;;11.20;2.65;;;;;;;;;;5098113;28;20386;-83
2021/08/27 03:17:47;;;;;;;15.85;2.90;;;;;;;;;;5103321;28;20048;-82
2021/08/27 03:20:22;;;;;;;13.90;2.90;;;;;;;;;;5105642;28;20044;-82
2021/08/27 03:22:54;;;;;;;10.63;3.17;;;;;;;;;;5103693;28;20079;-82
2021/08/27 03:25:22;;;;;;;11.27;2.88;;;;;;;;;;5101552;28;20036;-83
2021/08/27 03:27:55;;;;;;;11.48;2.90;;;;;;;;;;5113512;28;20080;-84
2021/08/27 03:30:23;;;;;;;12.75;3.60;;;;;;;;;;5115049;28;20032;-83
2021/08/27 03:32:58;;;;;;;9.85;2.67;;;;;;;;;;5106103;28;20076;-84
2021/08/27 03:35:24;;;;;;;10.00;3.20;;;;;;;;;;5097967;28;20146;-84
2021/08/27 03:37:51;;;;;;;14.38;3.25;;;;;;;;;;5098677;28;20048;-84
2021/08/27 03:40:22;;;;;;;11.00;3.95;;;;;;;;;;5107892;28;20032;-83
2021/08/27 03:42:49;;;;;;;13.32;2.83;;;;;;;;;;5112973;28;20139;-83
2021/08/27 03:45:22;;;;;;;12.73;2.97;;;;;;;;;;5104618;28;20450;-83
2021/08/27 03:47:50;;;;;;;5.97;2.63;;;;;;;;;;5101561;28;20517;-83
2021/08/27 03:50:16;;;;;;;9.90;2.38;;;;;;;;;;5112381;28;20051;-83
2021/08/27 03:52:44;;;;;;;10.38;3.05;;;;;;;;;;5110196;28;20055;-83
2021/08/27 03:55:12;;;;;;;10.90;3.17;;;;;;;;;;5097556;28;20086;-83
2021/08/27 03:57:44;;;;;;;18.98;3.30;;;;;;;;;;5097513;28;20048;-83
2021/08/27 04:00:11;;;;;;;11.35;3.33;;;;;;;;;;5097742;28;20066;-82
2021/08/27 04:02:39;;;;;;;8.75;3.15;;;;;;;;;;5095703;28;20039;-83
2021/08/27 04:05:21;;;;;;;11.75;3.20;;;;;;;;;;5096201;28;20112;-84
2021/08/27 04:07:48;;;;;;;9.15;2.67;;;;;;;;;;5098701;28;20051;-82
2021/08/27 04:10:16;;;;;;;13.32;3.40;;;;;;;;;;5098495;28;20060;-83
2021/08/27 04:12:43;;;;;;;13.02;3.15;;;;;;;;;;5097139;28;20068;-83
2021/08/27 04:15:11;;;;;;;10.65;2.90;;;;;;;;;;5098879;28;20044;-84
2021/08/27 04:17:38;;;;;;;7.78;2.63;;;;;;;;;;5099899;28;20052;-84
2021/08/27 04:20:06;;;;;;;14.35;3.40;;;;;;;;;;5103340;28;20044;-83
2021/08/27 04:22:33;;;;;;;14.27;3.10;;;;;;;;;;5099481;28;20044;-82
2021/08/27 04:24:59;;;;;;;7.97;2.47;;;;;;;;;;5098570;28;20048;-83
2021/08/27 04:27:26;;;;;;;5.78;2.40;;;;;;;;;;5098215;28;20048;-82
2021/08/27 04:29:52;;;;;;;13.95;2.58;;;;;;;;;;5096405;28;20147;-81
2021/08/27 04:32:19;;;;;;;7.57;2.50;;;;;;;;;;5096585;28;20082;-83
2021/08/27 04:34:46;;;;;;;10.55;3.00;;;;;;;;;;5094527;28;20105;-83
2021/08/27 04:37:16;;;;;;;6.70;2.10;;;;;;;;;;5099431;28;20157;-83
2021/08/27 04:39:43;;;;;;;6.15;2.10;;;;;;;;;;5096632;28;20052;-84
2021/08/27 04:42:10;;;;;;;6.60;2.50;;;;;;;;;;5095477;28;20321;-83
2021/08/27 04:44:37;;;;;;;7.20;2.45;;;;;;;;;;5078824;28;20048;-84
2021/08/27 04:47:04;;;;;;;9.32;2.70;;;;;;;;;;5093032;28;20072;-83
2021/08/27 04:49:30;;;;;;;4.63;2.05;;;;;;;;;;5093781;28;20075;-84
2021/08/27 04:51:57;;;;;;;8.48;2.30;;;;;;;;;;5092028;28;20052;-84
2021/08/27 04:54:23;;;;;;;6.72;2.28;;;;;;;;;;5093204;28;20404;-83
2021/08/27 04:56:50;;;;;;;8.20;2.13;;;;;;;;;;5094407;28;20060;-81
2021/08/27 04:59:16;;;;;;;7.78;1.90;;;;;;;;;;5094216;28;20293;-83
2021/08/27 05:01:43;;;;;;;7.50;1.95;;;;;;;;;;5107418;28;20064;-83
2021/08/27 05:04:10;;;;;;;24.50;2.75;;;;;;;;;;5111198;28;20131;-82
2021/08/27 05:06:37;;;;;;;9.90;2.22;;;;;;;;;;5107116;28;20163;-83
2021/08/27 05:09:04;;;;;;;6.45;2.20;;;;;;;;;;5109310;28;20074;-83
2021/08/27 05:11:31;;;;;;;12.50;2.20;;;;;;;;;;5109125;28;20099;-82
2021/08/27 05:13:57;;;;;;;9.20;2.05;;;;;;;;;;5095476;28;20626;-83
2021/08/27 05:16:24;;;;;;;7.97;2.00;;;;;;;;;;5092723;28;20060;-83
2021/08/27 05:19:03;;;;;;;12.18;2.08;;;;;;;;;;5093471;28;20072;-83
2021/08/27 05:21:30;;;;;;;6.68;2.25;;;;;;;;;;5093922;28;20416;-83
2021/08/27 05:23:56;;;;;;;11.05;2.05;;;;;;;;;;5094018;28;20052;-83
2021/08/27 05:26:26;;;;;;;7.32;2.67;;;;;;;;;;5093673;28;20048;-83
2021/08/27 05:28:59;;;;;;;12.38;2.20;;;;;;;;;;5094693;28;20070;-83
2021/08/27 05:31:25;;;;;;;13.55;3.00;;;;;;;;;;5096063;28;20060;-83
2021/08/27 05:33:52;;;;;;;13.55;2.38;;;;;;;;;;5096827;28;20142;-84
2021/08/27 05:36:22;;;;;;;11.48;2.35;;;;;;;;;;5095802;28;20152;-83
2021/08/27 05:38:51;;;;;;;9.93;2.00;;;;;;;;;;5131212;27;20043;-84
2021/08/27 05:41:17;;;;;;;6.47;1.67;;;;;;;;;;5098485;28;20052;-82
2021/08/27 05:43:47;;;;;;;12.20;2.63;;;;;;;;;;5089041;28;20048;-82
2021/08/27 05:46:14;;;;;;;9.07;1.92;;;;;;;;;;5076569;28;20284;-83
2021/08/27 05:48:40;;;;;;;17.20;2.47;;;;;;;;;;5093974;28;20047;-84
2021/08/27 05:51:07;;;;;;;8.48;2.28;;;;;;;;;;5098327;28;20097;-83
2021/08/27 05:53:34;;;;;;;10.15;2.22;;;;;;;;;;5097853;28;20044;-83
2021/08/27 05:56:00;;;;;;;8.90;2.10;;;;;;;;;;5098545;28;20048;-83
2021/08/27 05:58:28;;;;;;;7.38;2.03;;;;;;;;;;5096191;28;20210;-82
2021/08/27 06:00:56;;;;;;;6.47;2.08;;;;;;;;;;5099263;28;20076;-83
2021/08/27 06:03:22;;;;;;;7.95;2.10;;;;;;;;;;5097020;28;20419;-83
2021/08/27 06:06:02;;;;;;;7.10;1.70;;;;;;;;;;5098353;28;20108;-83
2021/08/27 06:08:29;;;;;;;9.98;2.70;;;;;;;;;;5115249;28;20082;-83
2021/08/27 06:10:56;;;;;;;10.00;2.33;;;;;;;;;;5127743;28;20061;-82
2021/08/27 06:13:26;;;;;;;12.07;2.28;;;;;;;;;;5113994;28;20044;-84
2021/08/27 06:15:53;;;;;;;10.43;1.92;;;;;;;;;;5122599;28;20136;-83
2021/08/27 06:18:19;;;;;;;8.50;2.45;;;;;;;;;;5115635;28;20150;-82
2021/08/27 06:20:48;;;;;;;10.95;2.08;;;;;;;;;;5089355;28;20114;-83
2021/08/27 06:23:15;;;;;;;8.40;1.90;;;;;;;;;;5089315;28;20074;-82
2021/08/27 06:25:41;;;;;;;5.20;1.48;;;;;;;;;;5097951;28;20052;-83
2021/08/27 06:28:08;;;;;;;10.88;1.85;;;;;;;;;;5084925;28;20432;-84
2021/08/27 06:30:34;;;;;;;5.00;1.45;;;;;;;;;;5074466;28;20048;-82
2021/08/27 06:33:02;;;;;;;12.07;2.17;;;;;;;;;;5086696;28;20046;-84
2021/08/27 06:35:30;;;;;;;5.53;1.25;;;;;;;;;;5103585;28;20085;-84
2021/08/27 06:40:43;;;;;;;6.33;1.90;;;;;;;;;;5109423;28;20187;-83
2021/08/27 06:43:10;;;;;;;7.53;1.90;;;;;;;;;;5104370;28;20047;-84
2021/08/27 06:45:37;;;;;;;9.27;1.60;;;;;;;;;;5141400;27;20090;-82
2021/08/27 06:48:04;;;;;;;5.60;1.42;;;;;;;;;;5104160;28;20048;-84
2021/08/27 06:50:30;;;;;;;10.90;2.20;;;;;;;;;;5106786;28;20048;-83
2021/08/27 06:52:57;;;;;;;13.25;2.05;;;;;;;;;;5106789;28;20145;-83
2021/08/27 06:55:27;;;;;;;10.93;1.52;;;;;;;;;;5143825;27;20078;-83
2021/08/27 06:57:54;;;;;;;6.93;1.50;;;;;;;;;;5098005;28;20059;-83
2021/08/27 07:00:21;;;;;;;6.80;1.70;;;;;;;;;;5096019;28;20044;-83
2021/08/27 07:02:53;;;;;;;11.75;1.88;;;;;;;;;;5099278;28;20108;-83
2021/08/27 07:05:24;;;;;;;5.75;1.27;;;;;;;;;;5100846;28;20044;-83
2021/08/27 07:07:51;;;;;;;8.88;1.70;;;;;;;;;;5097888;28;20214;-83
2021/08/27 07:10:21;;;;;;;8.25;2.00;;;;;;;;;;5094881;28;20048;-83
2021/08/27 07:12:49;;;;;;;5.55;1.23;;;;;;;;;;5093513;28;20143;-83
2021/08/27 07:15:16;;;;;;;3.55;1.55;;;;;;;;;;5091752;28;20047;-83
2021/08/27 07:17:43;;;;;;;5.07;1.60;;;;;;;;;;5101933;28;20051;-83
2021/08/27 07:20:11;;;;;;;6.45;1.65;;;;;;;;;;5113268;28;20454;-83
2021/08/27 07:22:37;;;;;;;11.65;1.88;;;;;;;;;;5113969;28;20065;-84
2021/08/27 07:25:08;;;;;;;4.88;1.27;;;;;;;;;;5098449;28;20048;-84
2021/08/27 07:27:37;;;;;;;7.47;1.58;;;;;;;;;;5075382;28;20118;-85
2021/08/27 07:30:04;;;;;;;5.85;1.52;;;;;;;;;;5072549;28;20109;-84
2021/08/27 07:32:31;;;;;;;12.93;1.50;;;;;;;;;;5071438;28;20064;-85
2021/08/27 07:35:02;;;;;;;9.15;1.70;;;;;;;;;;5090811;28;20051;-82
2021/08/27 07:37:28;;;;;;;8.23;1.33;;;;;;;;;;5092928;28;20052;-84
2021/08/27 07:39:55;;;;;;;4.72;1.48;;;;;;;;;;5090899;28;20051;-83
2021/08/27 07:42:22;;;;;;;5.40;1.50;;;;;;;;;;5094350;28;20059;-84
2021/08/27 07:44:48;;;;;;;5.78;1.20;;;;;;;;;;5091293;28;20180;-83
2021/08/27 07:47:15;;;;;;;9.73;1.40;;;;;;;;;;5092283;28;20194;-83
2021/08/27 07:49:41;;;;;;;6.63;1.48;;;;;;;;;;5094936;28;20048;-84
2021/08/27 07:52:08;;;;;;;4.68;1.52;;;;;;;;;;5093323;28;20101;-84
2021/08/27 07:54:39;;;;;;;9.68;1.52;;;;;;;;;;5094288;28;20350;-85
2021/08/27 07:57:07;;;;;;;3.92;1.45;;;;;;;;;;5093651;28;20340;-84
2021/08/27 07:59:35;;;;;;;6.03;1.50;;;;;;;;;;5127948;27;20048;-84
2021/08/27 08:02:02;;;;;;;2.90;1.35;;;;;;;;;;5105601;28;20137;-84
2021/08/27 08:04:30;;;;;;;5.88;1.30;;;;;;;;;;5105323;28;20044;-84
2021/08/27 08:06:57;;;;;;;6.45;1.65;;;;;;;;;;5093788;28;20052;-83
2021/08/27 08:09:25;;;;;;;4.30;1.92;;;;;;;;;;5093067;28;20223;-84
2021/08/27 08:11:53;;;;;;;8.55;2.28;;;;;;;;;;5091472;28;20050;-83
2021/08/27 08:14:20;;;;;;;10.05;2.15;;;;;;;;;;5105944;28;20063;-83
2021/08/27 08:16:48;;;;;;;7.90;2.22;;;;;;;;;;5107442;28;20055;-84
2021/08/27 08:19:15;;;;;;;7.78;1.60;;;;;;;;;;5106969;28;20055;-83
2021/08/27 08:21:42;;;;;;;9.30;1.95;;;;;;;;;;5105207;28;20336;-84
2021/08/27 08:24:11;;;;;;;9.75;1.80;;;;;;;;;;5105574;28;20035;-83
2021/08/27 08:26:41;;;;;;;6.60;1.95;;;;;;;;;;5105187;28;20202;-83
2021/08/27 08:29:08;;;;;;;7.07;1.92;;;;;;;;;;5102057;28;20044;-82
2021/08/27 08:31:34;;;;;;;7.95;2.53;;;;;;;;;;5101381;28;20055;-83
2021/08/27 08:34:04;;;;;;;3.97;1.83;;;;;;;;;;5136551;27;20094;-83
2021/08/27 08:36:33;;;;;;;11.93;2.17;;;;;;;;;;5099538;28;20051;-83
2021/08/27 08:38:59;;;;;;;9.65;2.10;;;;;;;;;;5085930;28;20041;-83
2021/08/27 08:41:45;;;;;;;9.35;2.03;;;;;;;;;;5079897;28;20053;-83
2021/08/27 08:44:12;;;;;;;5.10;2.17;;;;;;;;;;5079825;28;20067;-81
2021/08/27 08:46:39;;;;;;;8.52;2.95;;;;;;;;;;5075226;28;20064;-83
2021/08/27 08:49:09;;;;;;;10.30;2.15;;;;;;;;;;5076791;28;20105;-84
2021/08/27 08:51:36;;;;;;;7.28;2.55;;;;;;;;;;5091913;28;20269;-83
2021/08/27 08:54:03;;;;;;;6.90;1.88;;;;;;;;;;5084664;28;20048;-84
2021/08/27 08:56:38;;;;;;;6.45;2.15;;;;;;;;;;5104604;28;20036;-84
2021/08/27 08:59:05;;;;;;;6.20;2.55;;;;;;;;;;5089457;28;20070;-83
2021/08/27 09:01:31;;;;;;;6.53;2.53;;;;;;;;;;5090454;28;20048;-83
2021/08/27 09:03:59;;;;;;;5.72;2.42;;;;;;;;;;5090095;28;20052;-83
2021/08/27 09:06:25;;;;;;;6.55;2.15;;;;;;;;;;5094393;28;20155;-82
2021/08/27 09:08:52;;;;;;;8.02;2.60;;;;;;;;;;5095440;28;20118;-83
2021/08/27 09:11:23;;;;;;;4.75;2.00;;;;;;;;;;5130131;27;20052;-82
2021/08/27 09:13:51;;;;;;;6.78;1.98;;;;;;;;;;5128354;27;20051;-82
2021/08/27 09:16:18;;;;;;;7.45;2.13;;;;;;;;;;5126801;27;20103;-83
2021/08/27 09:18:47;;;;;;;7.30;2.13;;;;;;;;;;5093719;28;20455;-83
2021/08/27 09:21:34;;;;;;;6.80;1.77;;;;;;;;;;5083048;28;20044;-84
2021/08/27 09:24:08;;;;;;;7.38;2.45;;;;;;;;;;5121218;28;20057;-83
2021/08/27 09:26:36;;;;;;;7.93;2.80;;;;;;;;;;5122370;28;20063;-83
2021/08/27 09:29:03;;;;;;;7.53;2.60;;;;;;;;;;5122478;28;20110;-83
2021/08/27 09:31:34;;;;;;;7.05;1.85;;;;;;;;;;5082418;28;20048;-83
2021/08/27 09:34:04;;;;;;;7.35;2.00;;;;;;;;;;5075300;28;20052;-82
2021/08/27 09:36:33;;;;;;;5.05;2.08;;;;;;;;;;5073313;28;20074;-82
2021/08/27 09:39:01;;;;;;;7.80;2.10;;;;;;;;;;5122191;28;20098;-82
2021/08/27 09:41:27;;;;;;;4.57;2.05;;;;;;;;;;5115358;28;20044;-83
2021/08/27 09:43:55;;;;;;;6.10;2.08;;;;;;;;;;5075791;28;20344;-83
2021/08/27 09:46:32;;;;;;;6.32;1.95;;;;;;;;;;5126868;27;20106;-83
2021/08/27 09:48:59;;;;;;;5.10;2.00;;;;;;;;;;5103738;28;20070;-83
2021/08/27 09:51:39;;;;;;;7.15;2.10;;;;;;;;;;5108526;28;20111;-83
2021/08/27 09:54:06;;;;;;;11.10;2.65;;;;;;;;;;5103621;28;20048;-81
2021/08/27 09:56:53;;;;;;;9.80;2.75;;;;;;;;;;5077988;28;20059;-83
2021/08/27 09:59:32;;;;;;;6.30;2.50;;;;;;;;;;5073297;28;20056;-82
2021/08/27 10:01:58;;;;;;;5.43;2.58;;;;;;;;;;5091054;28;20086;-82
2021/08/27 10:04:25;;;;;;;5.57;2.47;;;;;;;;;;5100164;28;20293;-83
2021/08/27 10:06:52;;;;;;;7.20;2.50;;;;;;;;;;5102668;28;20048;-81
2021/08/27 10:09:18;;;;;;;8.88;2.80;;;;;;;;;;5090427;28;20048;-82
2021/08/27 10:11:48;;;;;;;4.68;2.00;;;;;;;;;;5088916;28;20079;-81
2021/08/27 10:14:15;;;;;;;7.45;2.42;;;;;;;;;;5075139;28;20326;-82
2021/08/27 10:16:43;;;;;;;4.28;2.15;;;;;;;;;;5102338;28;20048;-82
2021/08/27 10:19:12;;;;;;;4.38;1.90;;;;;;;;;;5085114;28;20048;-82
2021/08/27 10:21:38;;;;;;;8.25;2.25;;;;;;;;;;5087662;28;20158;-82
2021/08/27 10:24:08;;;;;;;6.75;2.03;;;;;;;;;;5080544;28;20500;-82
2021/08/27 10:26:39;;;;;;;7.40;2.17;;;;;;;;;;5071181;28;20060;-81
2021/08/27 10:29:06;;;;;;;5.50;1.83;;;;;;;;;;5072426;28;20534;-83
2021/08/27 10:31:41;;;;;;;5.43;2.00;;;;;;;;;;5070932;28;20116;-81
2021/08/27 10:34:08;;;;;;;7.07;2.50;;;;;;;;;;5070084;28;20072;-82
2021/08/27 10:36:35;;;;;;;5.28;1.90;;;;;;;;;;5084635;28;20043;-82
2021/08/27 10:39:04;;;;;;;6.95;1.85;;;;;;;;;;5088751;28;20098;-82
2021/08/27 10:41:35;;;;;;;6.07;2.05;;;;;;;;;;5134081;27;20137;-82
2021/08/27 10:44:15;;;;;;;6.43;2.10;;;;;;;;;;5101667;28;20114;-81
2021/08/27 10:47:03;;;;;;;6.22;2.42;;;;;;;;;;5094426;28;20047;-82
2021/08/27 10:49:59;;;;;;;5.93;1.55;;;;;;;;;;5096644;28;20039;-82
2021/08/27 10:52:32;;;;;;;5.15;2.15;;;;;;;;;;5088257;28;20051;-82
2021/08/27 10:55:04;;;;;;;5.00;1.80;;;;;;;;;;5090308;28;20083;-83
2021/08/27 10:57:50;;;;;;;5.88;2.00;;;;;;;;;;5079143;28;20447;-83
2021/08/27 11:00:31;;;;;;;3.88;1.83;;;;;;;;;;5066979;28;20206;-83
2021/08/27 11:03:00;;;;;;;3.83;1.63;;;;;;;;;;5076680;28;20054;-81
2021/08/27 11:05:31;;;;;;;5.97;1.75;;;;;;;;;;5109298;28;20052;-82
2021/08/27 11:07:59;;;;;;;4.72;2.28;;;;;;;;;;5102741;27;20550;-82
2021/08/27 11:10:34;;;;;;;4.38;1.85;;;;;;;;;;5074635;28;20048;-81
2021/08/27 11:13:01;;;;;;;6.93;1.77;;;;;;;;;;5108739;28;20044;-82
2021/08/27 11:15:33;;;;;;;10.52;2.22;;;;;;;;;;5073836;28;20048;-81
2021/08/27 11:18:18;;;;;;;6.65;1.88;;;;;;;;;;5071886;28;20052;-81
2021/08/27 11:20:48;;;;;;;3.58;1.23;;;;;;;;;;5073972;28;20052;-81
2021/08/27 11:23:20;;;;;;;6.30;1.70;;;;;;;;;;5085198;28;20079;-82
2021/08/27 11:26:00;;;;;;;2.72;1.60;;;;;;;;;;5087647;28;20055;-83
2021/08/27 11:28:27;;;;;;;2.53;1.40;;;;;;;;;;5081267;28;20044;-82
2021/08/27 11:31:08;;;;;;;3.22;1.77;;;;;;;;;;5082237;28;20563;-82
2021/08/27 11:33:40;;;;;;;6.10;1.63;;;;;;;;;;5089618;28;20101;-82
2021/08/27 11:36:10;;;;;;;2.63;1.55;;;;;;;;;;5090868;28;20061;-81
2021/08/27 11:38:37;;;;;;;4.03;2.10;;;;;;;;;;5094437;28;20320;-82
2021/08/27 11:41:04;;;;;;;5.60;2.10;;;;;;;;;;5095836;28;20208;-81
2021/08/27 11:43:45;;;;;;;3.60;1.75;;;;;;;;;;5095017;28;20046;-84
2021/08/27 11:46:20;;;;;;;3.15;1.20;;;;;;;;;;5093405;28;20101;-83
2021/08/27 11:48:52;;;;;;;3.15;1.38;;;;;;;;;;5094409;28;20453;-82
2021/08/27 11:51:26;;;;;;;5.68;1.42;;;;;;;;;;5123411;27;20104;-80
2021/08/27 11:53:54;;;;;;;3.80;1.23;;;;;;;;;;5088278;28;20068;-82
2021/08/27 11:56:25;;;;;;;4.05;1.42;;;;;;;;;;5090038;28;20040;-83
2021/08/27 11:58:51;;;;;;;6.75;1.52;;;;;;;;;;5094269;28;20048;-83
2021/08/27 12:01:25;;;;;;;3.03;1.35;;;;;;;;;;5138563;27;20493;-83
2021/08/27 12:03:55;;;;;;;3.40;1.20;;;;;;;;;;5096815;28;20075;-86
2021/08/27 12:06:27;;;;;;;3.10;1.10;;;;;;;;;;5093125;28;20054;-84
2021/08/27 12:08:55;;;;;;;4.10;1.52;;;;;;;;;;5090986;28;20056;-84
2021/08/27 12:11:31;;;;;;;2.40;1.20;;;;;;;;;;5091978;28;20072;-84
2021/08/27 12:14:00;;;;;;;3.58;1.17;;;;;;;;;;5089017;28;20036;-84
2021/08/27 12:16:27;;;;;;;1.65;0.60;;;;;;;;;;5089016;28;20260;-84
2021/08/27 12:22:45;;;;;;;2.72;1.40;;;;;;;;;;5097037;28;20225;-87
2021/08/27 12:25:19;;;;;;;2.58;1.40;;;;;;;;;;5099138;28;20108;-87
2021/08/27 12:28:02;;;;;;;4.82;1.25;;;;;;;;;;5096106;28;20048;-87
2021/08/27 12:30:29;;;;;;;2.65;1.00;;;;;;;;;;5099337;28;20083;-87
2021/08/27 12:33:17;;;;;;;2.40;1.10;;;;;;;;;;5124729;27;20410;-87
2021/08/27 12:35:46;;;;;;;3.80;1.27;;;;;;;;;;5098191;28;20040;-87
2021/08/27 12:38:16;;;;;;;2.42;1.20;;;;;;;;;;5080633;28;20056;-86
2021/08/27 12:41:08;;;;;;;3.63;1.63;;;;;;;;;;5102216;28;20036;-85
2021/08/27 12:43:34;;;;;;;5.55;1.40;;;;;;;;;;5108962;28;20086;-85
2021/08/27 12:46:05;;;;;;;2.33;1.13;;;;;;;;;;5099965;28;20086;-85
2021/08/27 12:48:37;;;;;;;2.63;1.30;;;;;;;;;;5080288;28;20110;-85
2021/08/27 12:51:05;;;;;;;4.97;1.55;;;;;;;;;;5078715;28;20055;-87
2021/08/27 12:53:35;;;;;;;3.38;1.50;;;;;;;;;;5089726;28;20127;-87
2021/08/27 12:56:17;;;;;;;2.90;1.70;;;;;;;;;;5108594;28;20048;-86
2021/08/27 12:58:46;;;;;;;2.22;1.55;;;;;;;;;;5090890;28;20052;-87
2021/08/27 13:01:37;;;;;;;5.20;1.98;;;;;;;;;;5088822;28;20033;-86
2021/08/27 13:04:04;;;;;;;4.00;1.67;;;;;;;;;;5086345;28;20416;-87
2021/08/27 13:06:34;;;;;;;4.13;1.63;;;;;;;;;;5105562;28;20277;-87
2021/08/27 13:09:06;;;;;;;3.92;1.70;;;;;;;;;;5101492;28;20087;-87
2021/08/27 13:11:42;;;;;;;6.28;1.80;;;;;;;;;;5078813;28;20049;-87
2021/08/27 13:14:27;;;;;;;6.43;2.10;;;;;;;;;;5105423;28;20221;-88
2021/08/27 13:17:04;;;;;;;3.70;1.60;;;;;;;;;;5106542;28;20040;-87
2021/08/27 13:19:48;;;;;;;2.75;1.33;;;;;;;;;;5090093;28;20052;-85
2021/08/27 13:22:24;;;;;;;4.45;1.30;;;;;;;;;;5081533;28;20288;-87
2021/08/27 13:25:18;;;;;;;3.92;1.35;;;;;;;;;;5083698;28;20112;-87
2021/08/27 13:27:45;;;;;;;4.85;1.70;;;;;;;;;;5083691;28;20212;-87
2021/08/27 13:30:15;;;;;;;3.97;1.40;;;;;;;;;;5077512;28;20098;-87
2021/08/27 13:32:52;;;;;;;1.98;1.10;;;;;;;;;;5075206;28;20228;-87
2021/08/27 13:35:22;;;;;;;2.55;1.23;;;;;;;;;;5077793;28;20067;-87
2021/08/27 13:37:49;;;;;;;1.88;1.00;;;;;;;;;;5075466;28;20052;-87
2021/08/27 13:40:17;;;;;;;2.95;1.10;;;;;;;;;;5077018;28;20161;-88
2021/08/27 13:42:44;;;;;;;3.53;0.70;;;;;;;;;;5076357;28;20103;-87
2021/08/27 13:45:14;;;;;;;2.83;0.90;;;;;;;;;;5058985;28;20106;-87
2021/08/27 13:47:44;;;;;;;1.80;0.75;;;;;;;;;;5075898;28;20083;-87
2021/08/27 13:50:11;;;;;;;3.70;0.70;;;;;;;;;;5083351;28;20048;-87
2021/08/27 13:52:43;;;;;;;2.10;0.70;;;;;;;;;;5089485;28;20104;-88
2021/08/27 13:55:16;;;;;;;1.98;0.73;;;;;;;;;;5087689;28;20070;-87
2021/08/27 13:57:43;;;;;;;1.25;0.50;;;;;;;;;;5078976;28;20301;-88
2021/08/27 14:00:11;;;;;;;4.22;1.10;;;;;;;;;;5087885;28;20191;-88
2021/08/27 14:02:38;;;;;;;1.27;1.00;;;;;;;;;;5080908;28;20058;-88
2021/08/27 14:05:08;;;;;;;3.13;0.63;;;;;;;;;;5081078;28;20052;-88
2021/08/27 14:07:56;;;;;;;2.85;1.17;;;;;;;;;;5091054;28;20051;-88
2021/08/27 14:10:25;;;;;;;1.70;0.80;;;;;;;;;;5059618;28;20103;-87
2021/08/27 14:12:53;;;;;;;1.85;0.93;;;;;;;;;;5060822;28;20522;-88
2021/08/27 14:15:20;;;;;;;1.80;0.80;;;;;;;;;;5059573;28;20463;-87
2021/08/27 14:17:46;;;;;;;1.75;0.88;;;;;;;;;;5049010;28;20161;-87
2021/08/27 14:20:13;;;;;;;3.67;1.00;;;;;;;;;;5051530;28;20080;-87
2021/08/27 14:22:40;;;;;;;1.23;0.57;;;;;;;;;;5060737;28;20048;-87
2021/08/27 14:25:08;;;;;;;2.63;0.80;;;;;;;;;;5058141;28;20229;-87
2021/08/27 14:27:38;;;;;;;2.15;0.93;;;;;;;;;;5058433;28;20095;-87
2021/08/27 14:30:07;;;;;;;5.38;1.38;;;;;;;;;;5061071;28;20095;-87
2021/08/27 14:32:34;;;;;;;3.17;1.08;;;;;;;;;;5068608;28;20037;-87
2021/08/27 14:35:03;;;;;;;2.70;1.20;;;;;;;;;;5070544;28;20256;-87
2021/08/27 14:37:40;;;;;;;3.78;1.27;;;;;;;;;;5070503;28;20079;-87
2021/08/27 14:40:08;;;;;;;1.73;0.90;;;;;;;;;;5068851;28;20060;-87
2021/08/27 14:42:35;;;;;;;3.40;1.30;;;;;;;;;;5068153;28;20049;-86
2021/08/27 14:45:02;;;;;;;1.52;0.82;;;;;;;;;;5071686;28;20037;-88
2021/08/27 14:47:35;;;;;;;2.28;0.88;;;;;;;;;;5069211;28;20037;-87
2021/08/27 14:50:02;;;;;;;3.58;1.20;;;;;;;;;;5062872;28;20093;-87
2021/08/27 14:52:29;;;;;;;5.60;2.72;;;;;;;;;;5057446;28;20049;-86
2021/08/27 14:54:56;;;;;;;4.88;3.28;;;;;;;;;;5059372;28;20053;-86
2021/08/27 14:57:22;;;;;;;2.70;1.38;;;;;;;;;;5062862;28;20417;-87
2021/08/27 14:59:49;;;;;;;3.05;1.05;;;;;;;;;;5058282;28;20262;-87
2021/08/27 15:02:17;;;;;;;2.53;1.20;;;;;;;;;;5059603;28;20114;-87